Centerton, Ohio
Current Conditions -  °F | °C
As of 7:19 PM on Sunday 25 Jan 2015 (Local Time) from KMFD Reporting Station
Light Snow Light Snow  
Wind Chill:   Ceiling: 2800
Heat Index: 21°   Visibility: 1mi
Dew Point: 19°   Wind: 13mph
Humidity: 92%   Direction: 20°NNE
Pressure: 29.8"   Gusts: NA
Location:  41.0768°N, 82.7214°W
Report Text: KMFD 260019Z 02011KT 1SM -SN BR SCT019 OVC028 M06/M07 A2980 RMK AO2 P0002 T10611072
Loading
Personal Weather Stations






























Interactive Weather Map New forecast layout! Learn more

10-Day Weather Forecast

Advertisements
Track Severe Weather on mobile